Terminal Aerodrome Forecast
Issued by NWS

Home | Current Version | Previous Version | Text Only | Print | Product List | Glossary On
Versions: 1 2 3 4 5 6 7 8 9 10 11 12 13 14 15 16 17 18
000
FTUS46 KMFR 211735
TAFRBG
TAF
KRBG 211735Z 2118/2218 VRB03KT 6SM -RA BR OVC025 WS020/26040KT
     FM212000 VRB02KT 4SM -RA BR SCT005 OVC025 WS020/26030KT
     FM220400 00000KT 3SM -RA BR OVC005
     FM221000 00000KT 4SM BR OVC004
     FM221300 00000KT 1/2SM FG OVC002=

USA.gov is the U.S. government's official web portal to all federal, state and local government web resources and services.